Time;durP1;ratioP1;P1;durP2;ratioP2;P2;SDS_P1;SDS_P2;PMS_P1;PMS_P2;Temp;Humidity;BMP_temperature;BMP_pressure;BME280_temperature;BME280_humidity;BME280_pressure;Samples;Min_cycle;Max_cycle;Signal;HPM_P1;HPM_P2
2023/03/13 00:01:57;;;;;;;6.10;1.58;;;23.40;99.90;;;;;;5054385;28;20202;-80
2023/03/13 00:04:30;;;;;;;8.98;1.77;;;23.30;99.90;;;;;;5052519;28;20201;-84
2023/03/13 00:07:01;;;;;;;7.40;1.75;;;23.30;99.90;;;;;;5053884;28;20197;-79
2023/03/13 00:09:33;;;;;;;10.73;2.17;;;23.30;99.90;;;;;;5056672;28;20194;-80
2023/03/13 00:12:04;;;;;;;8.02;1.73;;;23.30;99.90;;;;;;5052544;28;20201;-80
2023/03/13 00:14:35;;;;;;;5.63;1.35;;;23.20;99.90;;;;;;5054511;28;20201;-80
2023/03/13 00:17:06;;;;;;;6.10;1.50;;;23.10;99.90;;;;;;5051355;28;20201;-78
2023/03/13 00:19:39;;;;;;;6.65;1.50;;;23.10;99.90;;;;;;5047762;28;20568;-78
2023/03/13 00:22:10;;;;;;;6.32;1.30;;;23.20;99.90;;;;;;5051369;28;20213;-79
2023/03/13 00:24:41;;;;;;;5.43;1.30;;;23.30;99.90;;;;;;5053631;28;20212;-85
2023/03/13 00:27:12;;;;;;;6.53;1.35;;;23.30;99.90;;;;;;5053408;28;20332;-83
2023/03/13 00:29:43;;;;;;;6.65;1.40;;;23.40;99.90;;;;;;5051144;28;20225;-81
2023/03/13 00:32:14;;;;;;;3.22;1.20;;;23.50;99.90;;;;;;5052040;28;20244;-80
2023/03/13 00:34:47;;;;;;;7.97;1.55;;;23.50;99.90;;;;;;5054151;28;20194;-78
2023/03/13 00:37:18;;;;;;;6.25;1.20;;;23.50;99.90;;;;;;5054463;28;20190;-81
2023/03/13 00:39:49;;;;;;;6.72;1.20;;;23.70;99.90;;;;;;5040595;28;20677;-78
2023/03/13 00:42:25;;;;;;;4.35;1.25;;;23.90;99.90;;;;;;5049214;28;20562;-79
2023/03/13 00:44:56;;;;;;;4.32;1.25;;;24.00;99.90;;;;;;5051113;28;20207;-78
2023/03/13 00:47:27;;;;;;;4.72;1.45;;;24.00;99.90;;;;;;5053535;28;20204;-77
2023/03/13 00:50:00;;;;;;;3.83;1.10;;;23.80;99.90;;;;;;5050501;28;20198;-78
2023/03/13 00:52:31;;;;;;;5.88;1.38;;;23.70;99.90;;;;;;5050036;28;20559;-77
2023/03/13 00:55:03;;;;;;;4.15;0.95;;;23.70;99.90;;;;;;5048294;28;20569;-79
2023/03/13 00:57:36;;;;;;;2.95;0.85;;;23.80;99.90;;;;;;5050973;28;20244;-81
2023/03/13 01:00:08;;;;;;;4.30;1.20;;;23.90;99.90;;;;;;5042329;28;20303;-80
2023/03/13 01:02:44;;;;;;;4.78;1.20;;;23.80;99.90;;;;;;5051601;28;20232;-80
2023/03/13 01:05:17;;;;;;;6.72;1.42;;;23.70;99.90;;;;;;5033548;28;20194;-78
2023/03/13 01:07:49;;;;;;;3.17;0.82;;;23.60;99.90;;;;;;5039005;28;20190;-78
2023/03/13 01:10:21;;;;;;;5.75;1.30;;;23.70;99.90;;;;;;5047928;28;20272;-78
2023/03/13 01:12:52;;;;;;;4.63;0.98;;;23.60;99.90;;;;;;5048543;28;20205;-78
2023/03/13 01:15:23;;;;;;;6.60;1.10;;;23.60;99.90;;;;;;5053471;28;20532;-79
2023/03/13 01:17:54;;;;;;;6.03;1.17;;;23.60;99.90;;;;;;5052080;28;20567;-78
2023/03/13 01:20:27;;;;;;;7.03;3.30;;;23.80;99.90;;;;;;5050061;28;20331;-77
2023/03/13 01:22:58;;;;;;;5.93;1.60;;;23.90;99.90;;;;;;5035034;28;20202;-79
2023/03/13 01:25:33;;;;;;;4.82;1.80;;;24.00;99.90;;;;;;5054227;28;20197;-77
2023/03/13 01:28:04;;;;;;;4.07;1.00;;;24.00;99.90;;;;;;5052196;28;20189;-78
2023/03/13 01:30:35;;;;;;;3.53;0.80;;;24.30;99.90;;;;;;5055420;28;20656;-76
2023/03/13 01:33:07;;;;;;;6.93;1.15;;;24.70;99.90;;;;;;5051812;28;20229;-78
2023/03/13 01:35:40;;;;;;;7.95;1.40;;;25.00;99.90;;;;;;5052430;28;20197;-80
2023/03/13 01:38:12;;;;;;;5.90;1.10;;;25.00;99.90;;;;;;5055021;28;20668;-81
2023/03/13 01:40:45;;;;;;;9.05;1.20;;;24.90;99.90;;;;;;5052395;28;20251;-85
2023/03/13 01:43:24;;;;;;;5.40;0.98;;;25.00;99.90;;;;;;5055672;28;20197;-80
2023/03/13 01:46:02;;;;;;;3.78;1.00;;;25.30;99.90;;;;;;5052995;28;20194;-84
2023/03/13 01:48:42;;;;;;;8.50;1.25;;;25.40;99.90;;;;;;5046866;28;20664;-79
2023/03/13 01:51:18;;;;;;;4.40;1.17;;;25.20;99.90;;;;;;5048260;28;20223;-82
2023/03/13 01:53:52;;;;;;;5.38;1.20;;;24.80;99.90;;;;;;5064455;28;20191;-78
2023/03/13 01:56:29;;;;;;;4.22;1.10;;;24.60;99.90;;;;;;5062962;28;20206;-79
2023/03/13 01:59:02;;;;;;;5.53;1.00;;;24.50;99.90;;;;;;5053727;28;20575;-82
2023/03/13 02:01:33;;;;;;;5.68;1.08;;;24.30;99.90;;;;;;5047514;28;20193;-79
2023/03/13 02:04:04;;;;;;;4.72;1.08;;;24.20;99.90;;;;;;5053277;28;20196;-78
2023/03/13 02:06:40;;;;;;;5.10;1.17;;;24.00;99.90;;;;;;5052296;28;20186;-83
2023/03/13 02:09:13;;;;;;;6.15;1.20;;;24.00;99.90;;;;;;5050128;28;20193;-81
2023/03/13 02:11:51;;;;;;;5.35;1.23;;;24.00;99.90;;;;;;5054960;28;20201;-81
2023/03/13 02:14:25;;;;;;;2.90;0.80;;;24.00;99.90;;;;;;5046910;28;20684;-82
2023/03/13 02:16:57;;;;;;;7.85;1.10;;;24.00;99.90;;;;;;5052465;28;20194;-82
2023/03/13 02:19:34;;;;;;;5.35;1.10;;;23.90;99.90;;;;;;5032725;28;20236;-79
2023/03/13 02:22:15;;;;;;;4.38;0.93;;;23.80;99.90;;;;;;5050471;28;20574;-81
2023/03/13 02:24:54;;;;;;;5.72;1.40;;;23.90;99.90;;;;;;5052338;28;20182;-83
2023/03/13 02:27:27;;;;;;;3.63;1.13;;;23.90;99.90;;;;;;5054452;28;20212;-78
2023/03/13 02:29:59;;;;;;;4.80;0.90;;;23.90;99.90;;;;;;5033912;28;20202;-84
2023/03/13 02:32:32;;;;;;;3.42;0.98;;;23.90;99.90;;;;;;5051495;28;20229;-77
2023/03/13 02:35:08;;;;;;;3.33;1.00;;;23.90;99.90;;;;;;5037076;28;20605;-79
2023/03/13 02:37:40;;;;;;;5.88;0.85;;;23.80;99.90;;;;;;5047137;28;20664;-77
2023/03/13 02:40:14;;;;;;;4.70;0.90;;;23.70;99.90;;;;;;5047107;28;20236;-77
2023/03/13 02:42:49;;;;;;;7.40;1.13;;;23.70;99.90;;;;;;5050824;28;20198;-82
2023/03/13 02:45:20;;;;;;;5.65;1.10;;;23.70;99.90;;;;;;5052909;28;20563;-79
2023/03/13 02:47:51;;;;;;;6.28;1.10;;;23.70;99.90;;;;;;5068487;28;20303;-77
2023/03/13 02:50:23;;;;;;;3.75;0.82;;;23.70;99.90;;;;;;5075928;28;20554;-81
2023/03/13 02:52:56;;;;;;;3.95;1.10;;;23.70;99.90;;;;;;5075993;28;20663;-86
2023/03/13 02:55:31;;;;;;;3.63;1.38;;;23.70;99.90;;;;;;5076258;28;20193;-82
2023/03/13 02:58:04;;;;;;;6.78;1.00;;;23.80;99.90;;;;;;5063814;28;20271;-83
2023/03/13 03:00:35;;;;;;;7.88;1.10;;;23.80;99.90;;;;;;5075350;28;20216;-83
2023/03/13 03:03:06;;;;;;;6.07;0.93;;;23.80;99.90;;;;;;5063300;28;20213;-78
2023/03/13 03:05:37;;;;;;;6.90;0.93;;;23.70;99.90;;;;;;5056736;28;20189;-78
2023/03/13 03:08:08;;;;;;;3.72;0.98;;;23.70;99.90;;;;;;5063239;28;20201;-78
2023/03/13 03:10:39;;;;;;;2.72;0.98;;;23.70;99.90;;;;;;5060379;28;20637;-78
2023/03/13 03:13:12;;;;;;;2.95;1.00;;;23.70;99.90;;;;;;5054561;28;20212;-78
2023/03/13 03:15:44;;;;;;;3.55;0.85;;;23.70;99.90;;;;;;5055684;28;20197;-79
2023/03/13 03:18:15;;;;;;;4.90;1.05;;;23.70;99.90;;;;;;5054724;28;20205;-80
2023/03/13 03:20:46;;;;;;;5.43;1.00;;;23.70;99.90;;;;;;5054671;28;20214;-77
2023/03/13 03:23:17;;;;;;;4.50;1.20;;;23.80;99.90;;;;;;5055430;28;20193;-78
2023/03/13 03:25:48;;;;;;;3.33;1.08;;;23.80;99.90;;;;;;5044127;28;20198;-78
2023/03/13 03:28:21;;;;;;;4.13;1.00;;;23.80;99.90;;;;;;5054110;28;20193;-80
2023/03/13 03:30:53;;;;;;;8.05;1.27;;;23.80;99.90;;;;;;5056963;28;20202;-79
2023/03/13 03:33:24;;;;;;;5.25;0.95;;;23.80;99.90;;;;;;5055309;28;20324;-81
2023/03/13 03:36:00;;;;;;;5.90;1.10;;;23.80;99.90;;;;;;5050912;28;20201;-77
2023/03/13 03:38:31;;;;;;;4.13;1.30;;;23.70;99.90;;;;;;5053676;28;20201;-80
2023/03/13 03:41:02;;;;;;;6.28;1.15;;;23.60;99.90;;;;;;5054190;28;20228;-79
2023/03/13 03:43:35;;;;;;;9.00;1.40;;;23.50;99.90;;;;;;5054187;28;20346;-79
2023/03/13 03:46:07;;;;;;;8.25;1.25;;;23.30;99.90;;;;;;5055769;28;20194;-78
2023/03/13 03:48:38;;;;;;;4.75;1.23;;;23.20;99.90;;;;;;5055600;28;20190;-78
2023/03/13 03:51:10;;;;;;;4.15;1.10;;;23.10;99.90;;;;;;5058011;28;20556;-79
2023/03/13 03:53:41;;;;;;;5.75;1.42;;;23.10;99.90;;;;;;5048190;28;20194;-79
2023/03/13 03:56:12;;;;;;;4.88;1.40;;;23.10;99.90;;;;;;5048830;28;20192;-78
2023/03/13 03:58:45;;;;;;;5.55;1.27;;;23.00;99.90;;;;;;5061100;28;20280;-77
2023/03/13 04:01:16;;;;;;;6.32;1.17;;;23.10;99.90;;;;;;5052761;28;20217;-80
2023/03/13 04:03:47;;;;;;;5.88;1.30;;;23.10;99.90;;;;;;5044452;28;20769;-85
2023/03/13 04:06:18;;;;;;;7.15;1.30;;;23.10;99.90;;;;;;5042344;28;20535;-84
2023/03/13 04:08:49;;;;;;;8.00;1.20;;;23.10;99.90;;;;;;5061046;28;20197;-84
2023/03/13 04:11:20;;;;;;;5.45;1.20;;;23.20;99.90;;;;;;5057933;28;20190;-84
2023/03/13 04:13:53;;;;;;;4.45;1.33;;;23.20;99.90;;;;;;5056949;28;20220;-80
2023/03/13 04:16:25;;;;;;;4.80;1.10;;;23.20;99.90;;;;;;5072693;28;20181;-83
2023/03/13 04:18:56;;;;;;;5.25;1.30;;;23.30;99.90;;;;;;5074294;28;20554;-83
2023/03/13 04:21:27;;;;;;;4.15;1.00;;;23.40;99.90;;;;;;5052619;28;20209;-84
2023/03/13 04:23:58;;;;;;;5.25;1.40;;;23.40;99.90;;;;;;5054138;28;20195;-82
2023/03/13 04:26:29;;;;;;;7.30;1.10;;;23.50;99.90;;;;;;5054204;28;20194;-83
2023/03/13 04:29:02;;;;;;;3.40;1.10;;;23.40;99.90;;;;;;5054456;28;20551;-84
2023/03/13 04:31:33;;;;;;;4.57;1.15;;;23.40;99.90;;;;;;5053622;28;20552;-82
2023/03/13 04:34:04;;;;;;;3.38;1.40;;;23.40;99.90;;;;;;5064054;28;20591;-82
2023/03/13 04:36:35;;;;;;;3.35;1.05;;;23.30;99.90;;;;;;5053930;28;20659;-77
2023/03/13 04:39:06;;;;;;;7.88;1.50;;;23.20;99.90;;;;;;5042563;28;20216;-83
2023/03/13 04:41:37;;;;;;;5.78;1.45;;;23.30;99.90;;;;;;5054507;28;20213;-83
2023/03/13 04:44:10;;;;;;;2.88;1.20;;;23.30;99.90;;;;;;5053542;28;20604;-84
2023/03/13 04:46:41;;;;;;;6.43;1.92;;;23.30;99.90;;;;;;5053119;28;20204;-78
2023/03/13 04:49:13;;;;;;;5.97;1.23;;;23.40;99.90;;;;;;5052921;28;20198;-78
2023/03/13 04:51:44;;;;;;;3.78;1.30;;;23.60;99.90;;;;;;5055076;28;20205;-79
2023/03/13 04:54:15;;;;;;;5.10;1.40;;;23.60;99.90;;;;;;5049298;28;20637;-78
2023/03/13 04:56:47;;;;;;;7.05;1.30;;;23.70;99.90;;;;;;5033631;28;20638;-78
2023/03/13 04:59:21;;;;;;;7.47;1.40;;;23.60;99.90;;;;;;5042102;28;20190;-78
2023/03/13 05:01:52;;;;;;;9.27;1.40;;;23.70;99.90;;;;;;5033615;28;20237;-79
2023/03/13 05:04:23;;;;;;;6.68;1.48;;;23.70;99.90;;;;;;5038843;28;20212;-78
2023/03/13 05:06:54;;;;;;;5.95;1.00;;;23.70;99.90;;;;;;5053381;28;20193;-77
2023/03/13 05:09:25;;;;;;;4.25;1.10;;;23.70;99.90;;;;;;5050588;28;20198;-78
2023/03/13 05:11:56;;;;;;;8.60;1.20;;;23.80;99.90;;;;;;5046604;28;20197;-77
2023/03/13 05:14:29;;;;;;;8.27;1.20;;;23.70;99.90;;;;;;5053940;28;20691;-78
2023/03/13 05:17:00;;;;;;;4.57;1.10;;;23.80;99.90;;;;;;5055372;28;20197;-83
2023/03/13 05:19:31;;;;;;;4.45;1.13;;;23.80;99.90;;;;;;5051652;28;20210;-78
2023/03/13 05:22:02;;;;;;;5.97;1.02;;;23.90;99.90;;;;;;5051380;28;20217;-79
2023/03/13 05:24:33;;;;;;;7.10;0.93;;;23.90;99.90;;;;;;5052369;28;20528;-83
2023/03/13 05:27:04;;;;;;;6.88;1.25;;;23.80;99.90;;;;;;5052908;28;20559;-83
2023/03/13 05:29:38;;;;;;;8.25;1.33;;;23.80;99.90;;;;;;5051908;28;20205;-77
2023/03/13 05:32:09;;;;;;;6.35;1.20;;;23.70;99.90;;;;;;5057277;28;20260;-80
2023/03/13 05:34:40;;;;;;;6.72;1.27;;;23.60;99.90;;;;;;5053748;28;20519;-81
2023/03/13 05:37:11;;;;;;;5.38;1.10;;;23.50;99.90;;;;;;5054921;28;20198;-83
2023/03/13 05:39:42;;;;;;;6.20;1.23;;;23.50;99.90;;;;;;5056238;28;20193;-78
2023/03/13 05:42:13;;;;;;;6.45;1.10;;;23.40;99.90;;;;;;5052622;28;20229;-83
2023/03/13 05:44:46;;;;;;;5.25;1.10;;;23.50;99.90;;;;;;5052749;28;20219;-79
2023/03/13 05:47:17;;;;;;;5.07;1.00;;;23.40;99.90;;;;;;5052678;28;20197;-85
2023/03/13 05:49:48;;;;;;;4.80;1.15;;;23.40;99.90;;;;;;5042645;28;20290;-79
2023/03/13 05:52:19;;;;;;;7.20;1.30;;;23.30;99.90;;;;;;5047497;28;20683;-77
2023/03/13 05:54:51;;;;;;;4.65;1.05;;;23.30;99.90;;;;;;5052859;28;20559;-77
2023/03/13 05:57:22;;;;;;;6.13;1.10;;;23.30;99.90;;;;;;5047920;28;20189;-78
2023/03/13 05:59:55;;;;;;;4.93;1.10;;;23.30;99.90;;;;;;5068026;28;20210;-78
2023/03/13 06:02:26;;;;;;;6.60;1.30;;;23.30;99.90;;;;;;5053946;28;20252;-78
2023/03/13 06:04:57;;;;;;;5.90;1.20;;;23.40;99.90;;;;;;5047305;28;20562;-77
2023/03/13 06:07:28;;;;;;;8.15;1.15;;;23.40;99.90;;;;;;5053510;28;20193;-79
2023/03/13 06:09:59;;;;;;;4.13;1.10;;;23.50;99.90;;;;;;5054172;28;20197;-83
2023/03/13 06:12:30;;;;;;;6.32;1.13;;;23.50;99.90;;;;;;5044348;28;20224;-79
2023/03/13 06:15:03;;;;;;;4.80;1.15;;;23.60;99.90;;;;;;5052742;28;20189;-84
2023/03/13 06:17:34;;;;;;;4.40;1.05;;;23.60;99.90;;;;;;5052298;28;20197;-79
2023/03/13 06:20:05;;;;;;;9.00;2.25;;;23.60;99.90;;;;;;5047646;28;20324;-83
2023/03/13 06:22:36;;;;;;;5.13;1.02;;;23.60;99.90;;;;;;5050597;28;20566;-85
2023/03/13 06:25:08;;;;;;;9.10;1.10;;;23.60;99.90;;;;;;5056177;28;20223;-85
2023/03/13 06:27:39;;;;;;;3.70;1.20;;;23.50;99.90;;;;;;5063969;28;20181;-77
2023/03/13 06:30:14;;;;;;;5.65;1.02;;;23.40;99.90;;;;;;5059880;28;20202;-85
2023/03/13 06:32:46;;;;;;;6.90;1.05;;;23.40;99.90;;;;;;5052050;28;20226;-84
2023/03/13 06:35:17;;;;;;;5.53;1.08;;;23.30;99.90;;;;;;5036744;28;20216;-84
2023/03/13 06:37:48;;;;;;;7.07;1.10;;;23.20;99.90;;;;;;5051700;28;20562;-78
2023/03/13 06:40:19;;;;;;;5.15;1.00;;;23.20;99.90;;;;;;5036480;28;20194;-78
2023/03/13 06:42:51;;;;;;;5.28;1.02;;;23.10;99.90;;;;;;5055130;28;20200;-77
2023/03/13 06:45:24;;;;;;;4.18;1.00;;;23.10;99.90;;;;;;5054753;28;20205;-79
2023/03/13 06:47:55;;;;;;;5.90;1.27;;;23.00;99.90;;;;;;5052828;28;20201;-79
2023/03/13 06:50:26;;;;;;;5.38;1.10;;;23.00;99.90;;;;;;5052624;28;20193;-78
2023/03/13 06:52:57;;;;;;;5.13;1.10;;;23.00;99.90;;;;;;5055585;28;20205;-77
2023/03/13 06:55:28;;;;;;;7.43;1.25;;;22.90;99.90;;;;;;5054084;28;20924;-79
2023/03/13 06:57:59;;;;;;;7.95;1.20;;;22.90;99.90;;;;;;5056013;28;20661;-80
2023/03/13 07:00:33;;;;;;;7.15;1.13;;;22.90;99.90;;;;;;5054278;28;20209;-77
2023/03/13 07:03:04;;;;;;;8.02;1.40;;;22.90;99.90;;;;;;5055059;28;20217;-77
2023/03/13 07:05:35;;;;;;;5.93;1.10;;;22.90;99.90;;;;;;5058126;28;20197;-77
2023/03/13 07:08:06;;;;;;;5.13;1.05;;;22.80;99.90;;;;;;5055342;28;20193;-77
2023/03/13 07:10:37;;;;;;;3.13;1.10;;;22.80;99.90;;;;;;5052518;28;20193;-77
2023/03/13 07:13:08;;;;;;;3.55;1.13;;;22.80;99.90;;;;;;5055434;28;20204;-80
2023/03/13 07:15:41;;;;;;;4.00;1.25;;;22.80;99.90;;;;;;5052546;28;20201;-79
2023/03/13 07:18:12;;;;;;;5.35;1.15;;;22.80;99.90;;;;;;5054763;28;20194;-77
2023/03/13 07:20:44;;;;;;;4.78;1.10;;;22.80;99.90;;;;;;5053693;28;20201;-78
2023/03/13 07:23:15;;;;;;;5.50;1.65;;;22.80;99.90;;;;;;5055701;28;20190;-79
2023/03/13 07:25:46;;;;;;;9.55;2.70;;;22.80;99.90;;;;;;5053037;28;20198;-77
2023/03/13 07:28:18;;;;;;;5.50;1.48;;;22.80;99.90;;;;;;5055865;28;20217;-76
2023/03/13 07:30:51;;;;;;;6.53;2.00;;;22.80;99.90;;;;;;5049912;28;20221;-80
2023/03/13 07:33:22;;;;;;;8.07;1.30;;;22.70;99.90;;;;;;5054332;28;20225;-77
2023/03/13 07:35:54;;;;;;;9.48;1.80;;;22.70;99.90;;;;;;5051423;28;20205;-77
2023/03/13 07:38:25;;;;;;;7.60;2.28;;;22.70;99.90;;;;;;5050913;28;20189;-77
2023/03/13 07:40:57;;;;;;;12.18;1.67;;;22.60;99.90;;;;;;5053900;28;20577;-76
2023/03/13 07:43:30;;;;;;;7.90;1.75;;;22.60;99.90;;;;;;5054393;28;20672;-77
2023/03/13 07:46:04;;;;;;;4.40;1.20;;;22.50;99.90;;;;;;5052894;28;20198;-77
2023/03/13 07:48:37;;;;;;;8.50;1.30;;;22.50;99.90;;;;;;5052144;28;20202;-81
2023/03/13 07:51:09;;;;;;;8.65;1.65;;;22.50;99.90;;;;;;5053601;28;20198;-78
2023/03/13 07:53:40;;;;;;;5.30;1.20;;;22.40;99.90;;;;;;5054095;28;20194;-79
2023/03/13 07:56:14;;;;;;;1.98;1.10;;;22.40;99.90;;;;;;5050708;28;20537;-77
2023/03/13 07:58:46;;;;;;;8.18;1.10;;;22.40;99.90;;;;;;5053346;28;20672;-76
2023/03/13 08:01:20;;;;;;;7.40;1.30;;;22.40;99.90;;;;;;5060130;28;20244;-79
2023/03/13 08:03:51;;;;;;;7.60;1.45;;;22.40;99.90;;;;;;5051058;28;20203;-80
2023/03/13 08:06:24;;;;;;;8.18;1.40;;;22.40;99.90;;;;;;5053298;28;20197;-80
2023/03/13 08:08:58;;;;;;;6.43;1.40;;;22.40;99.90;;;;;;5054108;28;20524;-80
2023/03/13 08:11:30;;;;;;;5.53;1.17;;;22.30;99.90;;;;;;5055004;28;20189;-78
2023/03/13 08:14:01;;;;;;;4.75;1.20;;;22.30;99.90;;;;;;5053368;28;20201;-76
2023/03/13 08:16:36;;;;;;;5.40;1.15;;;22.30;99.90;;;;;;5054898;28;20190;-83
2023/03/13 08:19:07;;;;;;;6.07;1.10;;;22.30;99.90;;;;;;5054544;28;20185;-84
2023/03/13 08:21:39;;;;;;;3.70;1.10;;;22.30;99.90;;;;;;5034598;28;20218;-81
2023/03/13 08:24:13;;;;;;;6.50;1.15;;;22.30;99.90;;;;;;5039214;28;20193;-84
2023/03/13 08:26:44;;;;;;;5.03;1.10;;;22.30;99.90;;;;;;5051244;28;20198;-78
2023/03/13 08:29:16;;;;;;;5.15;1.30;;;22.30;99.90;;;;;;5067570;28;20205;-76
2023/03/13 08:31:51;;;;;;;7.13;1.52;;;22.30;99.90;;;;;;5063225;28;20198;-78
2023/03/13 08:34:22;;;;;;;6.32;1.48;;;22.30;99.90;;;;;;5013571;28;20195;-77
2023/03/13 08:36:53;;;;;;;7.80;1.30;;;22.30;99.90;;;;;;5014080;28;20203;-78
2023/03/13 08:39:24;;;;;;;4.85;1.25;;;22.30;99.90;;;;;;5016004;28;20666;-78
2023/03/13 08:41:59;;;;;;;5.57;1.42;;;22.30;99.90;;;;;;5012625;28;20229;-77
2023/03/13 08:44:30;;;;;;;6.40;1.10;;;22.30;99.90;;;;;;5000217;28;20195;-78
2023/03/13 08:47:03;;;;;;;6.10;0.90;;;22.30;99.90;;;;;;5017278;28;20201;-78
2023/03/13 08:49:34;;;;;;;8.57;1.23;;;22.30;99.90;;;;;;5009473;28;20203;-79
2023/03/13 08:52:07;;;;;;;7.40;1.33;;;22.30;99.90;;;;;;5012058;28;20222;-82
2023/03/13 08:54:38;;;;;;;9.88;1.40;;;22.20;99.90;;;;;;5009443;28;20579;-79
2023/03/13 08:57:09;;;;;;;7.25;1.30;;;22.00;99.90;;;;;;5010919;28;20646;-78
2023/03/13 08:59:40;;;;;;;5.95;1.42;;;21.90;99.90;;;;;;5013047;28;20217;-78
2023/03/13 09:02:18;;;;;;;6.03;1.48;;;21.80;99.90;;;;;;5012519;28;20238;-78
2023/03/13 09:04:50;;;;;;;4.18;1.30;;;21.70;99.90;;;;;;5017024;28;20194;-81
2023/03/13 09:07:21;;;;;;;10.13;1.40;;;21.70;99.90;;;;;;5014449;28;20203;-79
2023/03/13 09:09:52;;;;;;;5.65;1.30;;;21.60;99.90;;;;;;5012242;28;20199;-78
2023/03/13 09:12:23;;;;;;;6.38;1.35;;;21.60;99.90;;;;;;5010022;28;20199;-77
2023/03/13 09:14:54;;;;;;;4.93;1.05;;;21.60;99.90;;;;;;5011179;28;20207;-79
2023/03/13 09:17:27;;;;;;;8.35;1.05;;;21.60;99.90;;;;;;5011098;28;20229;-79
2023/03/13 09:19:58;;;;;;;7.03;1.20;;;21.60;99.90;;;;;;5005215;28;20224;-77
2023/03/13 09:22:29;;;;;;;8.55;1.33;;;21.60;99.90;;;;;;5005267;28;20219;-82
2023/03/13 09:25:00;;;;;;;11.20;1.13;;;21.60;99.90;;;;;;5012635;28;20206;-76
2023/03/13 09:27:31;;;;;;;4.03;1.05;;;21.60;99.90;;;;;;5011689;28;20213;-80
2023/03/13 09:30:02;;;;;;;3.95;1.00;;;21.70;99.90;;;;;;5012062;28;20205;-77
2023/03/13 09:32:36;;;;;;;5.95;1.42;;;21.80;99.90;;;;;;5024645;28;20244;-77
2023/03/13 09:35:07;;;;;;;3.95;1.10;;;21.80;99.90;;;;;;5050971;28;20573;-79
2023/03/13 09:37:38;;;;;;;6.18;1.08;;;21.80;99.90;;;;;;5053369;28;20645;-80
2023/03/13 09:40:11;;;;;;;5.00;0.90;;;21.80;99.90;;;;;;5047113;28;20557;-78
2023/03/13 09:42:50;;;;;;;6.60;1.30;;;21.90;99.90;;;;;;5052301;28;20213;-80
2023/03/13 09:45:26;;;;;;;4.90;1.10;;;21.80;99.90;;;;;;5052390;28;20247;-79
2023/03/13 09:48:04;;;;;;;5.88;1.13;;;21.90;99.90;;;;;;5053016;28;20678;-83
2023/03/13 09:50:37;;;;;;;5.28;1.05;;;21.90;99.90;;;;;;5056205;28;20207;-81
2023/03/13 09:53:16;;;;;;;7.60;1.30;;;21.90;99.90;;;;;;5045529;28;20216;-79
2023/03/13 09:55:48;;;;;;;8.10;1.38;;;21.90;99.90;;;;;;5055051;28;20201;-77
2023/03/13 09:58:23;;;;;;;5.68;1.00;;;21.90;99.90;;;;;;5055135;28;20579;-78
2023/03/13 10:00:59;;;;;;;8.35;1.50;;;21.90;99.90;;;;;;5051271;28;20691;-82
2023/03/13 10:03:37;;;;;;;10.48;1.58;;;21.90;99.90;;;;;;5053810;28;20213;-81
2023/03/13 10:06:16;;;;;;;8.32;1.13;;;21.90;99.90;;;;;;5060247;28;20577;-81
2023/03/13 10:08:47;;;;;;;10.35;1.73;;;21.80;99.90;;;;;;5052641;28;20193;-77
2023/03/13 10:11:29;;;;;;;4.60;0.80;;;21.80;99.90;;;;;;5054634;28;20202;-81
2023/03/13 10:14:06;;;;;;;5.45;0.88;;;21.80;99.90;;;;;;5054565;28;20204;-78
2023/03/13 10:16:45;;;;;;;4.55;0.93;;;21.80;99.90;;;;;;5054080;28;20215;-77
2023/03/13 10:19:19;;;;;;;6.63;1.42;;;21.80;99.90;;;;;;5045880;28;20213;-80
2023/03/13 10:21:53;;;;;;;7.88;1.00;;;21.80;99.90;;;;;;5048158;28;20679;-80
2023/03/13 10:24:34;;;;;;;5.75;1.00;;;21.80;99.90;;;;;;5066730;28;20656;-82
2023/03/13 10:27:05;;;;;;;7.32;1.27;;;21.80;99.90;;;;;;5063876;28;20574;-81
2023/03/13 10:29:41;;;;;;;7.95;1.10;;;21.80;99.90;;;;;;5053935;28;20204;-81
2023/03/13 10:32:15;;;;;;;4.68;1.00;;;21.80;99.90;;;;;;5057001;28;20657;-82
2023/03/13 10:34:54;;;;;;;6.30;0.90;;;21.70;99.90;;;;;;5055633;28;20579;-78
2023/03/13 10:37:27;;;;;;;5.90;1.00;;;21.70;99.90;;;;;;5052272;28;20220;-81
2023/03/13 10:40:15;;;;;;;5.57;1.38;;;21.70;99.90;;;;;;5057887;28;20201;-82
2023/03/13 10:42:47;;;;;;;8.50;0.95;;;21.70;99.90;;;;;;5056562;28;20557;-79
2023/03/13 10:45:20;;;;;;;6.00;1.15;;;21.70;99.90;;;;;;5058015;28;20202;-81
2023/03/13 10:47:58;;;;;;;5.90;1.23;;;21.70;99.90;;;;;;5052723;28;20201;-77
2023/03/13 10:50:36;;;;;;;8.32;1.15;;;21.70;99.90;;;;;;5054760;28;20554;-79
2023/03/13 10:53:26;;;;;;;5.13;0.75;;;21.60;99.90;;;;;;5058905;28;20197;-79
2023/03/13 10:56:01;;;;;;;6.15;1.15;;;21.60;99.90;;;;;;5049264;28;20581;-79
2023/03/13 10:58:37;;;;;;;8.15;1.00;;;21.60;99.90;;;;;;5052728;28;20280;-78
2023/03/13 11:01:20;;;;;;;5.60;0.88;;;21.60;99.90;;;;;;5055129;28;20710;-80
2023/03/13 11:03:52;;;;;;;7.15;1.10;;;21.60;99.90;;;;;;5049202;28;20218;-80
2023/03/13 11:06:31;;;;;;;8.93;1.33;;;21.50;99.90;;;;;;5055211;28;20328;-81
2023/03/13 11:09:07;;;;;;;3.13;0.90;;;21.60;99.90;;;;;;5054976;28;20209;-77
2023/03/13 11:11:48;;;;;;;6.90;0.70;;;21.50;99.90;;;;;;5061938;28;20675;-77
2023/03/13 11:14:21;;;;;;;3.83;0.75;;;21.50;99.90;;;;;;5047790;28;20221;-81
2023/03/13 11:16:53;;;;;;;5.60;0.95;;;21.50;99.90;;;;;;5064145;28;20197;-78
2023/03/13 11:19:54;;;;;;;5.50;0.90;;;21.50;99.90;;;;;;5054633;28;20205;-78
2023/03/13 11:22:39;;;;;;;3.20;0.70;;;21.50;99.90;;;;;;5054548;28;20214;-83
2023/03/13 11:25:22;;;;;;;3.95;1.10;;;21.50;99.90;;;;;;5059965;28;20197;-82
2023/03/13 11:28:16;;;;;;;5.70;0.98;;;21.50;99.90;;;;;;5055955;28;20194;-81
2023/03/13 11:31:11;;;;;;;5.10;0.90;;;21.50;99.90;;;;;;5044663;28;20577;-79
2023/03/13 11:33:52;;;;;;;5.57;0.93;;;21.40;99.90;;;;;;5048026;28;20233;-80
2023/03/13 11:36:27;;;;;;;4.78;0.90;;;21.50;99.90;;;;;;5049958;28;20262;-78
2023/03/13 11:39:09;;;;;;;5.82;1.00;;;21.40;99.90;;;;;;5057748;28;20661;-80
2023/03/13 11:41:51;;;;;;;6.85;1.08;;;21.40;99.90;;;;;;5057715;28;20197;-76
2023/03/13 11:44:31;;;;;;;5.13;1.00;;;21.40;99.90;;;;;;5054502;28;20215;-77
2023/03/13 11:47:37;;;;;;;2.65;0.73;;;21.40;99.90;;;;;;5052803;28;20208;-78
2023/03/13 11:50:27;;;;;;;4.05;0.85;;;21.40;99.90;;;;;;5038582;28;20196;-82
2023/03/13 11:53:15;;;;;;;3.78;0.98;;;21.40;99.90;;;;;;5059463;28;20213;-77
2023/03/13 11:56:03;;;;;;;3.47;0.90;;;21.40;99.90;;;;;;5044841;28;20200;-81
2023/03/13 11:59:04;;;;;;;6.43;1.00;;;21.30;99.90;;;;;;5047239;28;20683;-77
2023/03/13 12:01:42;;;;;;;6.03;1.10;;;21.40;99.90;;;;;;5053918;28;20723;-78
2023/03/13 12:04:19;;;;;;;2.88;0.80;;;21.40;99.90;;;;;;5051496;28;20221;-77
2023/03/13 12:06:56;;;;;;;5.97;1.23;;;21.40;99.90;;;;;;5051687;28;20224;-81
2023/03/13 12:09:32;;;;;;;3.15;0.93;;;21.40;99.90;;;;;;5053016;28;20193;-77
2023/03/13 12:12:10;;;;;;;5.35;1.13;;;21.40;99.90;;;;;;5051584;28;20569;-79
2023/03/13 12:14:46;;;;;;;5.57;1.30;;;21.40;99.90;;;;;;5055162;28;20193;-78
2023/03/13 12:17:23;;;;;;;5.07;1.00;;;21.40;99.90;;;;;;5053326;28;20212;-77
2023/03/13 12:20:03;;;;;;;3.85;1.00;;;21.40;99.90;;;;;;5053227;28;20200;-77
2023/03/13 12:22:38;;;;;;;2.88;0.93;;;21.40;99.90;;;;;;5054794;28;20877;-77
2023/03/13 12:25:18;;;;;;;5.55;1.10;;;21.40;99.90;;;;;;5042768;28;20205;-76
2023/03/13 12:27:55;;;;;;;6.25;1.25;;;21.40;99.90;;;;;;5049250;28;20193;-78
2023/03/13 12:30:35;;;;;;;3.88;1.15;;;21.30;99.90;;;;;;5050867;28;20197;-81
2023/03/13 12:33:15;;;;;;;7.32;1.20;;;21.40;99.90;;;;;;5051109;28;20240;-78
2023/03/13 12:35:51;;;;;;;4.97;1.10;;;21.30;99.90;;;;;;5052749;28;20202;-81
2023/03/13 12:38:27;;;;;;;4.65;1.08;;;21.30;99.90;;;;;;5054358;28;20633;-77
2023/03/13 12:41:08;;;;;;;6.22;1.20;;;21.30;99.90;;;;;;5052971;28;20284;-76
2023/03/13 12:43:43;;;;;;;2.72;0.95;;;21.30;99.90;;;;;;5053991;28;20228;-80
2023/03/13 12:46:42;;;;;;;5.20;1.17;;;21.30;99.90;;;;;;5053579;28;20599;-80
2023/03/13 12:49:42;;;;;;;3.80;1.00;;;21.40;99.90;;;;;;5053222;28;20198;-80
2023/03/13 12:52:41;;;;;;;6.60;1.15;;;21.30;99.90;;;;;;5053252;28;20197;-79
2023/03/13 12:55:39;;;;;;;5.93;1.15;;;21.30;99.90;;;;;;5036844;28;20209;-80
2023/03/13 12:58:48;;;;;;;5.63;1.17;;;21.30;99.90;;;;;;5046952;28;20194;-78
2023/03/13 13:01:27;;;;;;;5.97;1.08;;;21.30;99.90;;;;;;5012961;28;20216;-77
2023/03/13 13:04:00;;;;;;;4.72;1.30;;;21.40;99.90;;;;;;5030443;28;20229;-79
2023/03/13 13:06:48;;;;;;;5.03;1.13;;;21.30;99.90;;;;;;5033970;28;20688;-77
2023/03/13 13:09:24;;;;;;;5.85;1.17;;;21.30;99.90;;;;;;5050650;28;20196;-81
2023/03/13 13:11:58;;;;;;;9.15;1.25;;;21.30;99.90;;;;;;5073565;28;20192;-77
2023/03/13 13:15:02;;;;;;;7.07;1.50;;;21.30;99.90;;;;;;5073656;28;20203;-77
2023/03/13 13:17:58;;;;;;;3.67;1.10;;;21.30;99.90;;;;;;5066921;28;20259;-81
2023/03/13 13:20:38;;;;;;;4.25;1.10;;;21.30;99.90;;;;;;5053418;28;20197;-80
2023/03/13 13:23:32;;;;;;;4.45;1.27;;;21.30;99.90;;;;;;5053608;28;20221;-77